Time;durP1;ratioP1;P1;durP2;ratioP2;P2;SDS_P1;SDS_P2;PMS_P1;PMS_P2;Temp;Humidity;BMP_temperature;BMP_pressure;BME280_temperature;BME280_humidity;BME280_pressure;Samples;Min_cycle;Max_cycle;Signal;HPM_P1;HPM_P2
2022/09/27 00:01:42;;;;;;;1.30;1.20;;;14.50;82.90;;;-142.21;100.00;112049.66;5053495;28;20571;-70
2022/09/27 00:04:12;;;;;;;2.07;1.10;;;14.50;83.20;;;-142.21;100.00;112049.66;5052598;28;20480;-71
2022/09/27 00:06:40;;;;;;;1.37;1.30;;;14.50;83.30;;;-142.21;100.00;112049.66;5052756;28;20479;-70
2022/09/27 00:09:09;;;;;;;2.00;1.20;;;14.40;83.80;;;-142.21;100.00;112049.66;5053383;28;20484;-70
2022/09/27 00:11:39;;;;;;;1.13;1.10;;;14.30;83.70;;;-142.21;100.00;112049.66;5052632;28;20480;-71
2022/09/27 00:14:07;;;;;;;1.20;1.10;;;14.30;84.20;;;-142.21;100.00;112049.66;5053756;28;20443;-70
2022/09/27 00:16:39;;;;;;;1.23;1.17;;;14.30;84.10;;;-142.21;100.00;112049.66;5053096;28;20445;-70
2022/09/27 00:19:10;;;;;;;1.30;1.20;;;14.40;84.20;;;-142.21;100.00;112049.66;5052979;28;20945;-69
2022/09/27 00:21:37;;;;;;;1.73;1.50;;;14.40;84.20;;;-142.21;100.00;112049.66;5053444;28;20538;-71
2022/09/27 00:24:07;;;;;;;1.30;1.20;;;14.30;84.40;;;-142.21;100.00;112049.66;5053087;28;20499;-70
2022/09/27 00:26:34;;;;;;;2.73;1.50;;;14.40;84.70;;;-142.21;100.00;112049.66;5052392;28;21009;-70
2022/09/27 00:29:01;;;;;;;1.40;1.30;;;14.30;84.70;;;-142.21;100.00;112049.66;5053223;28;20516;-69
2022/09/27 00:31:33;;;;;;;1.90;1.17;;;14.40;85.40;;;-142.21;100.00;112049.66;5052237;28;20510;-70
2022/09/27 00:34:02;;;;;;;1.40;1.30;;;14.30;85.30;;;-142.21;100.00;112049.66;5044592;28;20476;-69
2022/09/27 00:36:31;;;;;;;2.10;1.40;;;14.20;85.50;;;-142.21;100.00;112049.66;5052517;28;20464;-70
2022/09/27 00:39:00;;;;;;;1.47;1.37;;;14.30;85.80;;;-142.21;100.00;112049.66;5052806;28;20441;-69
2022/09/27 00:41:35;;;;;;;2.10;1.40;;;14.40;85.70;;;-142.21;100.00;112049.66;5052598;28;20483;-71
2022/09/27 00:44:05;;;;;;;1.70;1.60;;;14.30;85.70;;;-142.21;100.00;112049.66;5052837;28;20527;-70
2022/09/27 00:46:42;;;;;;;1.37;1.20;;;14.40;85.90;;;-142.21;100.00;112049.66;5052036;28;20444;-70
2022/09/27 00:49:21;;;;;;;1.23;1.17;;;14.50;85.70;;;-142.21;100.00;112049.66;5052534;28;21023;-70
2022/09/27 00:51:58;;;;;;;2.33;1.50;;;14.50;85.50;;;-142.21;100.00;112049.66;5051398;28;20472;-70
2022/09/27 00:54:29;;;;;;;2.57;1.57;;;14.50;85.40;;;-142.21;100.00;112049.66;5052309;28;20498;-69
2022/09/27 00:56:59;;;;;;;2.10;1.60;;;14.50;85.20;;;-142.21;100.00;112049.66;5052542;28;20539;-71
2022/09/27 00:59:34;;;;;;;1.57;1.47;;;14.60;84.90;;;-142.21;100.00;112049.66;5051546;28;20936;-71
2022/09/27 01:02:03;;;;;;;3.27;1.30;;;14.60;85.00;;;-142.21;100.00;112049.66;5032638;28;20484;-71
2022/09/27 01:04:35;;;;;;;3.03;1.50;;;14.60;84.90;;;-142.21;100.00;112049.66;5050125;28;20449;-69
2022/09/27 01:07:03;;;;;;;1.90;1.73;;;14.50;84.80;;;-142.21;100.00;112049.66;5052315;28;20491;-71
2022/09/27 01:09:30;;;;;;;3.13;1.77;;;14.40;85.50;;;-142.21;100.00;112049.66;5051469;28;20480;-70
2022/09/27 01:12:22;;;;;;;2.27;1.67;;;14.50;85.70;;;-142.21;100.00;112049.66;5052679;28;20467;-71
2022/09/27 01:15:13;;;;;;;3.47;1.40;;;14.50;85.70;;;-142.21;100.00;112049.66;5051422;28;20472;-69
2022/09/27 01:18:00;;;;;;;1.67;1.40;;;14.50;85.70;;;-142.21;100.00;112049.66;5049362;28;20932;-70
2022/09/27 01:21:28;;;;;;;1.50;1.40;;;14.40;85.80;;;-142.21;100.00;112049.66;5041073;28;20467;-71
2022/09/27 01:24:44;;;;;;;1.70;1.60;;;14.40;86.20;;;-142.21;100.00;112049.66;5045710;28;21029;-70
2022/09/27 01:27:51;;;;;;;1.70;1.50;;;14.40;86.60;;;-142.21;100.00;112049.66;5049445;28;20457;-69
2022/09/27 01:30:25;;;;;;;1.53;1.43;;;14.30;86.40;;;-142.21;100.00;112049.66;5022142;28;20538;-70
2022/09/27 01:33:17;;;;;;;1.50;1.33;;;14.30;86.90;;;-142.21;100.00;112049.66;5051917;28;20443;-70
2022/09/27 01:36:08;;;;;;;1.50;1.40;;;14.20;86.50;;;-142.21;100.00;112049.66;5051520;28;20483;-71
2022/09/27 01:38:47;;;;;;;1.50;1.40;;;14.20;86.50;;;-142.21;100.00;112049.66;5051449;28;20514;-71
2022/09/27 01:41:26;;;;;;;2.03;1.50;;;14.20;86.60;;;-142.21;100.00;112049.66;5050376;28;20509;-71
2022/09/27 01:44:01;;;;;;;1.60;1.23;;;14.30;86.40;;;-142.21;100.00;112049.66;5051981;28;20432;-71
2022/09/27 01:46:38;;;;;;;1.27;1.20;;;14.20;86.20;;;-142.21;100.00;112049.66;5051176;28;20471;-70
2022/09/27 01:49:15;;;;;;;2.03;1.20;;;14.20;86.10;;;-142.21;100.00;112049.66;5051750;28;20518;-70
2022/09/27 01:51:49;;;;;;;2.77;1.70;;;14.20;86.10;;;-142.21;100.00;112049.66;5050747;28;20463;-70
2022/09/27 01:54:24;;;;;;;1.50;1.40;;;14.20;86.00;;;-142.21;100.00;112049.66;5051817;28;20464;-70
2022/09/27 01:56:56;;;;;;;1.83;1.20;;;14.30;85.80;;;-142.21;100.00;112049.66;5051350;28;21021;-69
2022/09/27 01:59:30;;;;;;;1.73;1.47;;;14.30;85.20;;;-142.21;100.00;112049.66;5050698;28;20452;-70
2022/09/27 02:02:04;;;;;;;2.57;1.17;;;14.30;85.60;;;-142.21;100.00;112049.66;5050526;28;20510;-71
2022/09/27 02:04:37;;;;;;;1.27;1.17;;;14.30;84.90;;;-142.21;100.00;112049.66;5050483;28;20463;-71
2022/09/27 02:07:31;;;;;;;2.00;1.20;;;14.30;85.10;;;-142.21;100.00;112049.66;5051444;28;20451;-70
2022/09/27 02:10:02;;;;;;;1.83;1.40;;;14.30;85.40;;;-142.21;100.00;112049.66;5035997;28;20475;-71
2022/09/27 02:12:51;;;;;;;1.80;1.17;;;14.40;85.20;;;-142.21;100.00;112049.66;5049924;28;20476;-71
2022/09/27 02:15:20;;;;;;;2.47;1.20;;;14.40;84.70;;;-142.21;100.00;112049.66;5051417;28;20469;-71
2022/09/27 02:18:01;;;;;;;1.97;1.27;;;14.40;84.70;;;-142.21;100.00;112049.66;5050897;28;20459;-71
2022/09/27 02:20:35;;;;;;;2.43;1.50;;;14.40;84.70;;;-142.21;100.00;112049.66;5050181;28;20464;-70
2022/09/27 02:23:17;;;;;;;1.90;1.27;;;14.40;84.70;;;-142.21;100.00;112049.66;5051220;28;20523;-70
2022/09/27 02:25:54;;;;;;;2.33;1.70;;;14.50;84.80;;;-142.21;100.00;112049.66;5050561;28;20523;-70
2022/09/27 02:28:30;;;;;;;2.80;1.70;;;14.40;85.10;;;-142.21;100.00;112049.66;5051383;28;20481;-70
2022/09/27 02:30:58;;;;;;;2.00;1.33;;;14.40;85.00;;;-142.21;100.00;112049.66;5050580;28;20494;-70
2022/09/27 02:33:35;;;;;;;3.87;1.73;;;14.40;84.70;;;-142.21;100.00;112049.66;5050304;28;20484;-71
2022/09/27 02:36:05;;;;;;;3.50;1.60;;;14.40;84.70;;;-142.21;100.00;112049.66;5051187;28;20522;-71
2022/09/27 02:38:33;;;;;;;2.63;1.67;;;14.40;85.40;;;-142.21;100.00;112049.66;5050422;28;21009;-71
2022/09/27 02:41:00;;;;;;;2.73;1.77;;;14.30;84.60;;;-142.21;100.00;112049.66;5050915;28;20480;-71
2022/09/27 02:43:33;;;;;;;2.77;1.80;;;14.30;85.10;;;-142.21;100.00;112049.66;5050334;28;20447;-71
2022/09/27 02:46:24;;;;;;;2.63;1.90;;;14.30;84.90;;;-142.21;100.00;112049.66;5051055;28;20941;-71
2022/09/27 02:49:10;;;;;;;2.70;1.63;;;14.20;84.80;;;-142.21;100.00;112049.66;5050652;28;20971;-71
2022/09/27 02:52:00;;;;;;;4.50;1.87;;;14.20;85.20;;;-142.21;100.00;112049.66;5050199;28;20498;-69
2022/09/27 02:54:47;;;;;;;3.27;1.87;;;14.20;85.60;;;-142.21;100.00;112049.66;5036923;28;20465;-71
2022/09/27 02:57:34;;;;;;;2.93;1.70;;;14.10;85.50;;;-142.21;100.00;112049.66;5051008;28;20510;-70
2022/09/27 03:00:08;;;;;;;6.43;2.00;;;14.20;85.90;;;-142.21;100.00;112049.66;5048356;28;20456;-69
2022/09/27 03:02:49;;;;;;;2.93;1.80;;;14.20;85.50;;;-142.21;100.00;112049.66;5050044;28;20568;-70
2022/09/27 03:05:24;;;;;;;3.30;1.87;;;14.10;85.60;;;-142.21;100.00;112049.66;5050881;28;20436;-69
2022/09/27 03:07:53;;;;;;;2.90;1.83;;;14.10;85.80;;;-142.21;100.00;112049.66;5051257;28;20436;-71
2022/09/27 03:10:24;;;;;;;3.13;1.83;;;14.10;85.80;;;-142.21;100.00;112049.66;5051178;28;20570;-71
2022/09/27 03:12:53;;;;;;;5.60;2.03;;;14.20;85.40;;;-142.21;100.00;112049.66;5050549;28;20502;-71
2022/09/27 03:15:20;;;;;;;6.03;2.27;;;14.20;84.80;;;-142.21;100.00;112049.66;5051101;28;20455;-69
2022/09/27 03:17:48;;;;;;;7.00;2.07;;;14.20;85.20;;;-142.21;100.00;112049.66;5050283;28;20464;-71
2022/09/27 03:20:16;;;;;;;5.23;2.23;;;14.20;85.20;;;-142.21;100.00;112049.66;5050744;28;20534;-70
2022/09/27 03:22:45;;;;;;;7.63;2.47;;;14.20;84.90;;;-142.21;100.00;112049.66;5050455;28;20482;-69
2022/09/27 03:25:12;;;;;;;4.20;2.53;;;14.20;84.50;;;-142.21;100.00;112049.66;5050651;28;20448;-70
2022/09/27 03:27:39;;;;;;;3.43;1.93;;;14.20;84.60;;;-142.21;100.00;112049.66;5049488;28;20542;-69
2022/09/27 03:30:08;;;;;;;4.53;2.30;;;14.10;84.40;;;-142.21;100.00;112049.66;5051915;28;20567;-70
2022/09/27 03:32:35;;;;;;;3.80;2.13;;;14.10;84.70;;;-142.21;100.00;112049.66;5053098;28;20547;-69
2022/09/27 03:35:03;;;;;;;5.93;2.70;;;14.00;84.80;;;-142.21;100.00;112049.66;5053211;28;20475;-70
2022/09/27 03:37:31;;;;;;;5.40;2.40;;;14.00;84.60;;;-142.21;100.00;112049.66;5053637;28;20521;-71
2022/09/27 03:39:59;;;;;;;5.13;2.33;;;14.00;84.60;;;-142.21;100.00;112049.66;5054471;28;20523;-69
2022/09/27 03:42:26;;;;;;;6.30;2.70;;;14.00;84.70;;;-142.21;100.00;112049.66;5053939;28;20476;-69
2022/09/27 03:44:56;;;;;;;5.83;2.67;;;14.00;84.80;;;-142.21;100.00;112049.66;5054545;28;20796;-70
2022/09/27 03:47:23;;;;;;;7.03;2.57;;;14.10;84.40;;;-142.21;100.00;112049.66;5053851;28;20472;-70
2022/09/27 03:49:51;;;;;;;4.23;2.50;;;14.00;84.40;;;-142.21;100.00;112049.66;5053446;28;20563;-70
2022/09/27 03:52:18;;;;;;;4.13;2.70;;;14.00;84.40;;;-142.21;100.00;112049.66;5054222;28;20498;-70
2022/09/27 03:54:47;;;;;;;4.80;2.37;;;14.00;84.40;;;-142.21;100.00;112049.66;5053751;28;20877;-69
2022/09/27 03:57:14;;;;;;;7.87;2.80;;;13.90;84.30;;;-142.21;100.00;112049.66;5053581;28;20543;-70
2022/09/27 03:59:41;;;;;;;8.07;2.30;;;13.90;85.10;;;-142.21;100.00;112049.66;5053138;28;20474;-70
2022/09/27 04:02:08;;;;;;;7.27;2.33;;;13.90;85.10;;;-142.21;100.00;112049.66;5049242;28;21049;-70
2022/09/27 04:04:36;;;;;;;5.07;2.40;;;14.00;84.70;;;-142.21;100.00;112049.66;5053381;28;20532;-70
2022/09/27 04:07:03;;;;;;;7.17;2.37;;;13.90;84.80;;;-142.21;100.00;112049.66;5054018;28;20874;-70
2022/09/27 04:09:31;;;;;;;8.00;2.40;;;13.90;85.20;;;-142.21;100.00;112049.66;5052470;28;20533;-70
2022/09/27 04:11:59;;;;;;;5.80;2.77;;;14.00;85.20;;;-142.21;100.00;112049.66;5053357;28;20477;-69
2022/09/27 04:14:26;;;;;;;5.50;2.40;;;14.00;84.90;;;-142.21;100.00;112049.66;5053833;28;20553;-69
2022/09/27 04:16:53;;;;;;;3.97;2.40;;;13.90;85.20;;;-142.21;100.00;112049.66;5053574;28;20538;-69
2022/09/27 04:19:21;;;;;;;3.87;2.30;;;13.90;85.30;;;-142.21;100.00;112049.66;5053465;28;20502;-69
2022/09/27 04:21:48;;;;;;;5.20;2.90;;;13.80;85.20;;;-142.21;100.00;112049.66;5052696;28;20930;-70
2022/09/27 04:24:15;;;;;;;7.30;2.90;;;13.90;85.20;;;-142.21;100.00;112049.66;5053658;28;20856;-70
2022/09/27 04:26:42;;;;;;;5.77;2.87;;;14.00;85.10;;;-142.21;100.00;112049.66;5052749;28;20519;-70
2022/09/27 04:29:11;;;;;;;5.30;2.30;;;14.00;84.60;;;-142.21;100.00;112049.66;5053593;28;20484;-70
2022/09/27 04:31:38;;;;;;;5.83;2.50;;;13.90;84.30;;;-142.21;100.00;112049.66;5052898;28;20456;-70
2022/09/27 04:34:06;;;;;;;3.00;2.23;;;13.90;84.70;;;-142.21;100.00;112049.66;5053487;28;20476;-70
2022/09/27 04:36:33;;;;;;;3.53;2.20;;;13.90;84.60;;;-142.21;100.00;112049.66;5052105;28;20529;-70
2022/09/27 04:39:04;;;;;;;4.27;2.00;;;13.90;84.80;;;-142.21;100.00;112049.66;5053130;28;20447;-70
2022/09/27 04:41:34;;;;;;;10.77;2.47;;;14.00;84.60;;;-142.21;100.00;112049.66;5051215;28;20465;-70
2022/09/27 04:44:02;;;;;;;3.23;2.00;;;14.00;84.30;;;-142.21;100.00;112049.66;5053127;28;20440;-70
2022/09/27 04:46:31;;;;;;;6.00;2.13;;;13.90;84.20;;;-142.21;100.00;112049.66;5052510;28;20967;-70
2022/09/27 04:48:59;;;;;;;4.87;2.20;;;13.90;84.70;;;-142.21;100.00;112049.66;5052197;28;20491;-70
2022/09/27 04:51:28;;;;;;;5.37;2.13;;;13.90;84.50;;;-142.21;100.00;112049.66;5051625;28;20956;-70
2022/09/27 04:53:57;;;;;;;3.13;2.13;;;13.80;84.80;;;-142.21;100.00;112049.66;5052790;28;20522;-70
2022/09/27 04:56:25;;;;;;;5.77;2.30;;;13.80;85.10;;;-142.21;100.00;112049.66;5052847;28;20444;-71
2022/09/27 04:58:58;;;;;;;4.03;2.13;;;13.90;84.70;;;-142.21;100.00;112049.66;5052103;28;20888;-70
2022/09/27 05:01:25;;;;;;;3.70;1.90;;;13.90;84.40;;;-142.21;100.00;112049.66;5052177;28;20482;-71
2022/09/27 05:03:54;;;;;;;4.37;1.83;;;13.90;84.30;;;-142.21;100.00;112049.66;5052072;28;20482;-70
2022/09/27 05:06:24;;;;;;;5.60;2.03;;;13.90;84.70;;;-142.21;100.00;112049.66;5052765;28;20449;-70
2022/09/27 05:08:52;;;;;;;3.47;1.90;;;13.80;84.70;;;-142.21;100.00;112049.66;5051837;28;20514;-70
2022/09/27 05:11:19;;;;;;;3.53;2.30;;;13.80;85.00;;;-142.21;100.00;112049.66;5052944;28;20537;-70
2022/09/27 05:13:46;;;;;;;4.17;2.20;;;13.90;85.10;;;-142.21;100.00;112049.66;5051523;28;20534;-70
2022/09/27 05:16:14;;;;;;;4.30;1.93;;;13.90;84.80;;;-142.21;100.00;112049.66;5052238;28;21022;-70
2022/09/27 05:18:41;;;;;;;3.90;1.80;;;14.00;84.60;;;-142.21;100.00;112049.66;5051357;28;20963;-71
2022/09/27 05:21:10;;;;;;;5.00;2.10;;;13.90;84.50;;;-142.21;100.00;112049.66;5051919;28;20445;-71
2022/09/27 05:23:37;;;;;;;5.03;2.10;;;13.80;85.00;;;-142.21;100.00;112049.66;5051377;28;20451;-71
2022/09/27 05:26:05;;;;;;;3.57;2.20;;;13.80;85.10;;;-142.21;100.00;112049.66;5052476;28;20471;-69
2022/09/27 05:28:33;;;;;;;2.93;1.93;;;13.70;85.10;;;-142.21;100.00;112049.66;5051412;28;20448;-71
2022/09/27 05:31:01;;;;;;;4.17;1.80;;;13.80;84.70;;;-142.21;100.00;112049.66;5052131;28;20457;-70
2022/09/27 05:33:28;;;;;;;4.57;2.33;;;13.80;84.80;;;-142.21;100.00;112049.66;5052124;28;20527;-70
2022/09/27 05:35:57;;;;;;;4.17;2.07;;;13.80;84.60;;;-142.21;100.00;112049.66;5049598;28;20491;-70
2022/09/27 05:38:26;;;;;;;4.37;2.00;;;13.90;84.80;;;-142.21;100.00;112049.66;5051538;28;20936;-70
2022/09/27 05:40:53;;;;;;;3.97;2.10;;;13.90;84.20;;;-142.21;100.00;112049.66;5051245;28;20451;-70
2022/09/27 05:43:21;;;;;;;3.23;1.90;;;13.90;84.10;;;-142.21;100.00;112049.66;5051812;28;20521;-71
2022/09/27 05:45:49;;;;;;;4.73;1.97;;;13.90;83.90;;;-142.21;100.00;112049.66;5051002;28;20448;-70
2022/09/27 05:48:20;;;;;;;3.40;1.87;;;13.90;84.10;;;-142.21;100.00;112049.66;5051032;28;20963;-70
2022/09/27 05:50:48;;;;;;;2.50;1.60;;;14.00;83.40;;;-142.21;100.00;112049.66;5051161;28;20475;-71
2022/09/27 05:53:15;;;;;;;3.17;1.80;;;14.00;83.20;;;-142.21;100.00;112049.66;5051354;28;20444;-70
2022/09/27 05:55:44;;;;;;;1.87;1.67;;;13.90;83.30;;;-142.21;100.00;112049.66;5051240;28;20851;-69
2022/09/27 05:58:12;;;;;;;3.40;1.77;;;13.90;83.00;;;-142.21;100.00;112049.66;5051336;28;20529;-69
2022/09/27 06:00:39;;;;;;;2.67;1.73;;;13.90;83.50;;;-142.21;100.00;112049.66;5051029;28;20452;-70
2022/09/27 06:03:07;;;;;;;2.80;1.60;;;13.90;83.30;;;-142.21;100.00;112049.66;5051407;28;20537;-69
2022/09/27 06:05:37;;;;;;;4.37;1.87;;;13.80;83.30;;;-142.21;100.00;112049.66;5050606;28;20480;-69
2022/09/27 06:08:07;;;;;;;2.37;2.10;;;13.70;83.60;;;-142.21;100.00;112049.66;5051054;28;20440;-69
2022/09/27 06:10:35;;;;;;;2.67;1.70;;;13.60;83.50;;;-142.21;100.00;112049.66;5050578;28;20480;-70
2022/09/27 06:13:07;;;;;;;3.30;1.60;;;13.60;83.80;;;-142.21;100.00;112049.66;5044294;28;20448;-70
2022/09/27 06:15:38;;;;;;;3.93;1.70;;;13.60;83.50;;;-142.21;100.00;112049.66;5050561;28;20494;-70
2022/09/27 06:18:08;;;;;;;1.93;1.67;;;13.70;83.70;;;-142.21;100.00;112049.66;5051490;28;20447;-71
2022/09/27 06:20:37;;;;;;;2.40;1.77;;;13.80;83.50;;;-142.21;100.00;112049.66;5050087;28;20437;-71
2022/09/27 06:23:07;;;;;;;2.67;1.77;;;13.80;83.60;;;-142.21;100.00;112049.66;5051167;28;20943;-72
2022/09/27 06:25:35;;;;;;;2.23;1.27;;;13.90;83.30;;;-142.21;100.00;112049.66;5051277;28;20445;-71
2022/09/27 06:28:05;;;;;;;2.53;1.40;;;13.90;82.80;;;-142.21;100.00;112049.66;5050890;28;20452;-70
2022/09/27 06:30:32;;;;;;;2.63;1.50;;;13.90;82.70;;;-142.21;100.00;112049.66;5051300;28;20488;-70
2022/09/27 06:33:02;;;;;;;2.27;1.50;;;13.90;82.50;;;-142.21;100.00;112049.66;5050629;28;20506;-70
2022/09/27 06:35:30;;;;;;;2.77;1.60;;;13.80;82.20;;;-142.21;100.00;112049.66;5050691;28;20440;-70
2022/09/27 06:38:05;;;;;;;4.10;1.50;;;13.90;82.70;;;-142.21;100.00;112049.66;5050389;28;20456;-71
2022/09/27 06:40:33;;;;;;;2.43;1.60;;;13.90;82.40;;;-142.21;100.00;112049.66;5050702;28;20510;-70
2022/09/27 06:43:06;;;;;;;2.40;1.50;;;13.90;82.30;;;-142.21;100.00;112049.66;5050370;28;20506;-71
2022/09/27 06:45:35;;;;;;;2.33;1.50;;;13.80;82.00;;;-142.21;100.00;112049.66;5050805;28;20863;-71
2022/09/27 06:48:03;;;;;;;1.30;1.20;;;13.70;82.30;;;-142.21;100.00;112049.66;5050983;28;20445;-70
2022/09/27 06:50:31;;;;;;;2.13;1.30;;;13.70;82.70;;;-142.21;100.00;112049.66;5050228;28;21034;-70
2022/09/27 06:52:59;;;;;;;2.37;1.50;;;13.70;82.60;;;-142.21;100.00;112049.66;5049817;28;20854;-71
2022/09/27 06:55:26;;;;;;;1.67;1.23;;;13.70;82.60;;;-142.21;100.00;112049.66;5050660;28;20440;-71
2022/09/27 07:00:42;;;;;;;1.93;1.27;;;13.70;81.50;;;-142.21;100.00;112049.66;5039880;28;20439;-72
2022/09/27 07:03:12;;;;;;;1.27;1.17;;;13.60;82.50;;;-142.21;100.00;112049.66;5050304;28;20516;-72
2022/09/27 07:05:40;;;;;;;0.90;0.90;;;13.50;82.70;;;-142.21;100.00;112049.66;5052847;28;20912;-71
2022/09/27 07:08:10;;;;;;;1.70;1.43;;;13.40;82.80;;;-142.21;100.00;112049.66;5055102;28;20851;-71
2022/09/27 07:10:39;;;;;;;2.63;1.30;;;13.40;82.80;;;-142.21;100.00;112049.66;5053864;28;20476;-71
2022/09/27 07:13:10;;;;;;;1.43;1.20;;;13.40;82.30;;;-142.21;100.00;112049.66;5046490;28;20502;-71
2022/09/27 07:15:40;;;;;;;1.23;1.10;;;13.50;82.90;;;-142.21;100.00;112049.66;5054149;28;20436;-71
2022/09/27 07:18:09;;;;;;;3.37;1.20;;;13.50;81.80;;;-142.21;100.00;112049.66;5054679;28;20436;-72
2022/09/27 07:20:37;;;;;;;1.30;1.20;;;13.60;81.70;;;-142.21;100.00;112049.66;5054123;28;20444;-71
2022/09/27 07:23:06;;;;;;;5.03;1.40;;;13.60;81.60;;;-142.21;100.00;112049.66;5054315;28;20451;-78
2022/09/27 07:25:34;;;;;;;1.60;1.40;;;13.70;81.50;;;-142.21;100.00;112049.66;5054424;28;20745;-72
2022/09/27 07:28:03;;;;;;;1.77;1.20;;;13.70;81.50;;;-142.21;100.00;112049.66;5052831;28;20497;-71
2022/09/27 07:30:30;;;;;;;1.30;1.20;;;13.80;80.80;;;-142.21;100.00;112049.66;5054097;28;20490;-71
2022/09/27 07:33:00;;;;;;;2.73;1.20;;;13.90;80.10;;;-142.21;100.00;112049.66;5054059;28;20514;-69
2022/09/27 07:35:28;;;;;;;1.33;1.10;;;13.90;79.20;;;-142.21;100.00;112049.66;5054146;28;20448;-69
2022/09/27 07:37:57;;;;;;;3.30;1.60;;;13.90;80.10;;;-142.21;100.00;112049.66;5053487;28;20505;-69
2022/09/27 07:40:26;;;;;;;1.50;1.00;;;13.90;79.40;;;-142.21;100.00;112049.66;5054696;28;20494;-69
2022/09/27 07:42:58;;;;;;;2.53;1.20;;;14.00;79.80;;;-142.21;100.00;112049.66;5053991;28;20510;-69
2022/09/27 07:45:26;;;;;;;1.53;1.23;;;14.00;78.80;;;-142.21;100.00;112049.66;5053610;28;20783;-73
2022/09/27 07:47:53;;;;;;;3.63;1.10;;;13.90;78.70;;;-142.21;100.00;112049.66;5052979;28;20448;-72
2022/09/27 07:50:22;;;;;;;2.03;1.30;;;13.90;79.40;;;-142.21;100.00;112049.66;5054283;28;20840;-72
2022/09/27 07:52:51;;;;;;;2.10;1.27;;;14.00;79.20;;;-142.21;100.00;112049.66;5053358;28;20452;-73
2022/09/27 07:55:19;;;;;;;1.83;1.30;;;14.20;79.50;;;-142.21;100.00;112049.66;5053683;28;20452;-74
2022/09/27 07:57:47;;;;;;;1.70;1.30;;;14.20;79.10;;;-142.21;100.00;112049.66;5052944;28;20514;-71
2022/09/27 08:00:18;;;;;;;2.27;1.33;;;14.30;78.60;;;-142.21;100.00;112049.66;5052502;28;20451;-72
2022/09/27 08:02:46;;;;;;;1.73;1.40;;;14.30;78.20;;;-142.21;100.00;112049.66;5052547;28;20989;-72
2022/09/27 08:05:14;;;;;;;1.33;1.17;;;14.20;77.60;;;-142.21;100.00;112049.66;5054040;28;20444;-71
2022/09/27 08:07:43;;;;;;;2.23;1.20;;;14.10;78.40;;;-142.21;100.00;112049.66;5051753;28;20452;-71
2022/09/27 08:10:10;;;;;;;1.50;1.30;;;14.10;78.80;;;-142.21;100.00;112049.66;5053622;28;20847;-71
2022/09/27 08:12:38;;;;;;;2.50;1.23;;;14.10;78.70;;;-142.21;100.00;112049.66;5053909;28;20444;-71
2022/09/27 08:15:06;;;;;;;1.50;1.40;;;14.10;78.10;;;-142.21;100.00;112049.66;5053537;28;20483;-71
2022/09/27 08:17:34;;;;;;;2.90;1.50;;;14.10;78.50;;;-142.21;100.00;112049.66;5052036;28;20472;-71
2022/09/27 08:20:05;;;;;;;3.33;1.60;;;14.20;78.10;;;-142.21;100.00;112049.66;5053939;28;20522;-73
2022/09/27 08:22:32;;;;;;;2.90;1.70;;;14.20;78.20;;;-142.21;100.00;112049.66;5057592;28;20530;-71
2022/09/27 08:25:01;;;;;;;3.13;1.83;;;14.20;77.80;;;-142.21;100.00;112049.66;5058723;28;20455;-71
2022/09/27 08:27:28;;;;;;;1.70;1.60;;;14.20;77.60;;;-142.21;100.00;112049.66;5053462;28;20444;-71
2022/09/27 08:29:55;;;;;;;3.27;1.70;;;14.20;78.10;;;-142.21;100.00;112049.66;5052220;28;20519;-71
2022/09/27 08:32:23;;;;;;;2.27;1.60;;;14.20;77.30;;;-142.21;100.00;112049.66;5053150;28;20510;-72
2022/09/27 08:34:50;;;;;;;2.57;1.60;;;14.30;78.20;;;-142.21;100.00;112049.66;5052708;28;20859;-72
2022/09/27 08:37:18;;;;;;;3.60;1.60;;;14.40;78.20;;;-142.21;100.00;112049.66;5052150;28;20490;-72
2022/09/27 08:39:45;;;;;;;4.07;1.90;;;14.50;77.90;;;-142.21;100.00;112049.66;5051487;28;20441;-71
2022/09/27 08:42:44;;;;;;;2.53;1.67;;;14.60;77.30;;;-142.21;100.00;112049.66;5052528;28;20486;-71
2022/09/27 08:45:18;;;;;;;2.57;1.50;;;14.60;77.10;;;-142.21;100.00;112049.66;5050070;28;20482;-73
2022/09/27 08:47:50;;;;;;;2.50;1.67;;;14.70;77.40;;;-142.21;100.00;112049.66;5052125;28;20432;-71
2022/09/27 08:50:28;;;;;;;2.87;1.90;;;14.80;76.60;;;-142.21;100.00;112049.66;5052500;28;20504;-71
2022/09/27 08:53:04;;;;;;;1.73;1.63;;;14.80;76.70;;;-142.21;100.00;112049.66;5051905;28;20837;-72
2022/09/27 08:55:37;;;;;;;3.10;1.87;;;14.90;75.50;;;-142.21;100.00;112049.66;5057995;28;20493;-72
2022/09/27 08:58:19;;;;;;;3.03;2.20;;;14.90;76.00;;;-142.21;100.00;112049.66;5058883;28;20487;-70
2022/09/27 09:00:46;;;;;;;2.33;2.13;;;15.00;75.20;;;-142.21;99.72;112049.66;5071524;28;20455;-71
2022/09/27 09:03:20;;;;;;;2.37;1.60;;;14.90;74.40;;;-142.21;99.79;112049.66;5058139;28;20472;-71
2022/09/27 09:06:09;;;;;;;3.47;1.80;;;14.90;74.70;;;-142.21;99.90;112049.66;5051784;28;20420;-71
2022/09/27 09:08:51;;;;;;;3.80;2.20;;;15.00;74.70;;;-142.21;98.94;112049.66;5052591;28;20896;-72
2022/09/27 09:14:48;;;;;;;3.13;1.90;;;15.20;73.00;;;-142.21;97.39;112049.66;5051111;28;20443;-72
2022/09/27 09:17:29;;;;;;;5.80;2.20;;;15.20;73.60;;;-142.21;95.73;112049.66;5048730;28;20490;-72
2022/09/27 09:20:20;;;;;;;2.70;2.00;;;15.10;72.40;;;-142.21;97.06;112049.66;5050877;28;20458;-70
2022/09/27 09:23:10;;;;;;;5.10;2.17;;;14.90;73.50;;;-142.21;97.76;112049.66;5036299;28;20445;-70
2022/09/27 09:25:52;;;;;;;3.77;2.33;;;14.90;73.90;;;-142.21;96.87;112049.66;5033677;28;20471;-75
2022/09/27 09:28:37;;;;;;;2.63;2.17;;;14.70;73.10;;;-142.21;98.47;112049.66;5032075;28;20433;-71
2022/09/27 09:31:21;;;;;;;5.43;2.43;;;14.70;74.50;;;-142.21;97.76;112049.66;5033375;28;20489;-70
2022/09/27 09:33:58;;;;;;;4.07;2.43;;;14.90;74.10;;;-142.21;96.85;112049.66;5031694;28;20464;-71
2022/09/27 09:36:35;;;;;;;3.43;2.13;;;15.00;73.50;;;-142.21;97.23;112049.66;5038644;28;20452;-71
2022/09/27 09:39:13;;;;;;;4.40;2.00;;;15.00;73.80;;;-142.21;96.75;112049.66;5047633;28;20839;-71
2022/09/27 09:41:55;;;;;;;4.40;2.10;;;15.10;73.00;;;-142.21;97.36;112049.66;5054227;28;20530;-72
2022/09/27 09:44:28;;;;;;;5.03;2.33;;;15.20;73.70;;;-142.21;95.54;112049.66;5050820;28;20490;-71
2022/09/27 09:47:02;;;;;;;2.47;2.20;;;15.30;72.10;;;-142.21;96.51;112049.66;5040491;28;20441;-72
2022/09/27 09:49:39;;;;;;;4.87;2.47;;;15.30;72.80;;;-142.21;97.19;112049.66;5050649;28;20837;-72
2022/09/27 09:52:14;;;;;;;3.60;1.80;;;15.40;73.90;;;-142.21;95.17;112049.66;5039715;28;20476;-71
2022/09/27 09:54:49;;;;;;;3.60;1.90;;;15.30;71.90;;;-142.21;99.35;112049.66;5032734;28;20444;-71
2022/09/27 09:57:22;;;;;;;3.20;2.30;;;15.20;73.70;;;-142.21;100.00;112049.66;5037081;28;20928;-72
2022/09/27 09:59:58;;;;;;;4.50;2.70;;;14.90;75.00;;;-142.21;100.00;112049.66;5042072;28;20793;-72
2022/09/27 10:02:34;;;;;;;4.27;2.33;;;14.60;77.30;;;-142.21;100.00;112049.66;5049030;28;20511;-73
2022/09/27 10:05:03;;;;;;;4.23;2.30;;;14.40;78.70;;;-142.21;100.00;112049.66;5041387;28;20550;-72
2022/09/27 10:07:33;;;;;;;2.77;2.20;;;14.30;79.70;;;-142.21;100.00;112049.66;5049054;28;20519;-72
2022/09/27 10:10:06;;;;;;;5.13;2.30;;;14.30;79.80;;;-142.21;100.00;112049.66;5044571;28;20448;-72
2022/09/27 10:12:36;;;;;;;3.87;2.30;;;14.30;79.60;;;-142.21;100.00;112049.66;5050297;28;20441;-73
2022/09/27 10:15:06;;;;;;;4.97;2.20;;;14.30;79.40;;;-142.21;100.00;112049.66;5050833;28;20444;-73
2022/09/27 10:17:41;;;;;;;3.97;2.70;;;14.30;80.60;;;-142.21;100.00;112049.66;5035950;28;20929;-73
2022/09/27 10:20:25;;;;;;;6.63;2.30;;;14.30;79.70;;;-142.21;100.00;112049.66;5031897;28;20436;-72